createdAt,value
2023-01-05T00:00:28.423Z,4.95
2023-01-05T00:03:01.244Z,4.78
2023-01-05T00:05:34.150Z,5.60
2023-01-05T00:08:07.138Z,7.30
2023-01-05T00:10:58.257Z,4.72
2023-01-05T00:13:48.829Z,3.55
2023-01-05T00:16:39.083Z,5.33
2023-01-05T00:19:32.924Z,4.12
2023-01-05T00:22:31.947Z,4.03
2023-01-05T00:25:12.099Z,4.53
2023-01-05T00:27:45.755Z,3.98
2023-01-05T00:30:21.893Z,4.90
2023-01-05T00:32:55.179Z,4.78
2023-01-05T00:35:29.970Z,6.55
2023-01-05T00:38:03.112Z,3.77
2023-01-05T00:40:37.567Z,5.40
2023-01-05T00:43:10.415Z,5.17
2023-01-05T00:45:46.465Z,3.35
2023-01-05T00:50:52.456Z,4.10
2023-01-05T00:53:25.826Z,3.72
2023-01-05T00:56:00.061Z,3.98
2023-01-05T00:58:33.388Z,4.12
2023-01-05T01:01:12.485Z,3.55
2023-01-05T01:03:45.376Z,5.62
2023-01-05T01:06:18.750Z,4.10
2023-01-05T01:08:51.926Z,5.90
2023-01-05T01:11:25.450Z,2.83
2023-01-05T01:13:58.523Z,3.08
2023-01-05T01:16:31.417Z,4.30
2023-01-05T01:19:05.571Z,3.95
2023-01-05T01:21:38.749Z,5.30
2023-01-05T01:24:19.585Z,4.23
2023-01-05T01:26:52.903Z,4.20
2023-01-05T01:29:26.344Z,3.10
2023-01-05T01:32:00.188Z,4.73
2023-01-05T01:37:03.200Z,4.40
2023-01-05T01:39:37.911Z,4.90
2023-01-05T01:42:17.854Z,3.87
2023-01-05T01:45:04.615Z,2.95
2023-01-05T01:47:53.271Z,4.65
2023-01-05T01:50:45.109Z,3.85
2023-01-05T01:53:31.287Z,9.50
2023-01-05T01:56:07.529Z,4.75
2023-01-05T01:58:41.113Z,5.42
2023-01-05T02:01:14.579Z,3.87
2023-01-05T02:03:48.190Z,4.73
2023-01-05T02:06:23.194Z,4.87
2023-01-05T02:08:56.157Z,4.05
2023-01-05T02:11:42.058Z,4.17
2023-01-05T02:14:39.644Z,4.70
2023-01-05T02:17:41.493Z,3.70
2023-01-05T02:20:44.730Z,5.22
2023-01-05T02:23:49.056Z,4.53
2023-01-05T02:26:52.267Z,4.47
2023-01-05T02:29:49.771Z,4.58
2023-01-05T02:32:24.613Z,4.00
2023-01-05T02:35:18.781Z,4.28
2023-01-05T02:37:59.263Z,4.60
2023-01-05T02:40:42.945Z,6.28
2023-01-05T02:43:20.280Z,3.63
2023-01-05T02:45:53.206Z,4.15
2023-01-05T02:48:26.985Z,4.65
2023-01-05T02:51:07.110Z,3.62
2023-01-05T02:53:51.224Z,3.98
2023-01-05T02:56:28.898Z,5.80
2023-01-05T02:59:06.524Z,3.72
2023-01-05T03:01:49.499Z,4.90
2023-01-05T03:04:40.141Z,5.72
2023-01-05T03:07:19.171Z,5.10
2023-01-05T03:09:54.380Z,6.95
2023-01-05T03:12:52.553Z,4.80
2023-01-05T03:15:32.505Z,4.97
2023-01-05T03:18:14.312Z,4.15
2023-01-05T03:20:51.076Z,6.58
2023-01-05T03:23:41.891Z,4.22
2023-01-05T03:26:33.158Z,6.55
2023-01-05T03:29:23.932Z,5.97
2023-01-05T03:32:22.104Z,6.90
2023-01-05T03:35:32.868Z,6.95
2023-01-05T03:38:19.534Z,6.55
2023-01-05T03:40:55.158Z,7.20
2023-01-05T03:43:28.138Z,5.03
2023-01-05T03:46:01.731Z,5.78
2023-01-05T03:48:34.900Z,6.47
2023-01-05T03:51:08.573Z,6.72
2023-01-05T03:53:42.628Z,4.53
2023-01-05T03:56:15.383Z,4.72
2023-01-05T03:58:48.205Z,6.80
2023-01-05T04:01:21.370Z,7.10
2023-01-05T04:03:54.429Z,4.58
2023-01-05T04:06:27.219Z,5.47
2023-01-05T04:09:00.227Z,6.22
2023-01-05T04:11:33.180Z,7.62
2023-01-05T04:14:07.708Z,7.00
2023-01-05T04:16:40.932Z,6.77
2023-01-05T04:19:16.086Z,9.60
2023-01-05T04:21:49.059Z,7.87
2023-01-05T04:24:23.001Z,6.78
2023-01-05T04:26:56.260Z,11.30
2023-01-05T04:29:30.767Z,6.42
2023-01-05T04:32:06.235Z,10.80
2023-01-05T04:34:39.613Z,8.65
2023-01-05T04:37:12.741Z,8.40
2023-01-05T04:39:45.483Z,5.78
2023-01-05T04:42:19.358Z,6.28
2023-01-05T04:44:54.316Z,7.28
2023-01-05T04:47:27.522Z,7.30
2023-01-05T04:50:01.608Z,7.00
2023-01-05T04:52:34.749Z,7.80
2023-01-05T04:55:08.900Z,14.65
2023-01-05T04:57:43.395Z,7.15
2023-01-05T05:02:51.064Z,9.38
2023-01-05T05:05:24.051Z,12.35
2023-01-05T05:07:58.639Z,9.68
2023-01-05T05:10:33.630Z,9.85
2023-01-05T05:13:06.508Z,9.60
2023-01-05T05:15:40.789Z,10.00
2023-01-05T05:18:13.949Z,11.90
2023-01-05T05:20:49.114Z,8.58
2023-01-05T05:23:22.895Z,8.13
2023-01-05T05:25:56.300Z,9.63
2023-01-05T05:28:29.659Z,8.47
2023-01-05T05:31:02.627Z,8.98
2023-01-05T05:33:37.105Z,11.12
2023-01-05T05:36:10.847Z,9.48
2023-01-05T05:38:43.806Z,12.03
2023-01-05T05:41:16.628Z,10.30
2023-01-05T05:43:49.368Z,8.95
2023-01-05T05:46:22.217Z,10.43
2023-01-05T05:48:55.808Z,8.73
2023-01-05T05:51:29.218Z,17.70
2023-01-05T05:54:02.064Z,11.15
2023-01-05T05:56:35.048Z,10.68
2023-01-05T05:59:07.718Z,9.13
2023-01-05T06:01:41.400Z,9.23
2023-01-05T06:04:14.132Z,10.70
2023-01-05T06:06:47.932Z,13.25
2023-01-05T06:09:21.085Z,10.60
2023-01-05T06:11:54.771Z,10.05
2023-01-05T06:14:28.006Z,10.72
2023-01-05T06:17:00.990Z,7.65
2023-01-05T06:19:34.072Z,10.83
2023-01-05T06:22:07.730Z,12.63
2023-01-05T06:24:41.048Z,8.95
2023-01-05T06:27:13.771Z,8.90
2023-01-05T06:29:46.421Z,9.05
2023-01-05T06:32:19.364Z,10.30
2023-01-05T06:34:52.749Z,9.68
2023-01-05T06:37:26.240Z,11.45
2023-01-05T06:40:00.224Z,8.53
2023-01-05T06:42:33.453Z,10.50
2023-01-05T06:45:08.248Z,10.10
2023-01-05T06:47:41.227Z,8.28
2023-01-05T06:50:14.642Z,7.85
2023-01-05T06:52:47.745Z,11.43
2023-01-05T06:55:22.158Z,8.40
2023-01-05T06:58:00.447Z,8.80
2023-01-05T07:00:31.144Z,7.30
2023-01-05T07:03:04.419Z,11.35
2023-01-05T07:05:39.071Z,9.25
2023-01-05T07:08:12.888Z,8.08
2023-01-05T07:10:45.595Z,9.73
2023-01-05T07:13:19.072Z,7.90
2023-01-05T07:15:51.873Z,7.65
2023-01-05T07:18:24.989Z,6.80
2023-01-05T07:20:57.765Z,9.28
2023-01-05T07:23:31.191Z,6.63
2023-01-05T07:26:04.747Z,6.33
2023-01-05T07:28:39.645Z,8.93
2023-01-05T07:31:13.714Z,10.82
2023-01-05T07:33:47.061Z,7.40
2023-01-05T07:36:19.770Z,8.73
2023-01-05T07:38:56.730Z,9.43
2023-01-05T07:41:29.176Z,5.78
2023-01-05T07:44:02.201Z,6.95
2023-01-05T07:46:35.427Z,8.05
2023-01-05T07:49:09.928Z,15.10
2023-01-05T07:51:42.917Z,7.50
2023-01-05T07:54:15.945Z,6.60
2023-01-05T07:56:49.110Z,6.13
2023-01-05T07:59:21.994Z,7.35
2023-01-05T08:01:54.907Z,6.62
2023-01-05T08:04:28.083Z,6.63
2023-01-05T08:07:02.185Z,9.05
2023-01-05T08:12:24.365Z,14.15
2023-01-05T08:14:57.168Z,10.08
2023-01-05T08:17:29.971Z,7.08
2023-01-05T08:20:02.723Z,8.65
2023-01-05T08:22:37.183Z,12.63
2023-01-05T08:25:10.743Z,5.85
2023-01-05T08:27:43.396Z,5.87
2023-01-05T08:30:16.619Z,7.90
2023-01-05T08:32:49.461Z,5.60
2023-01-05T08:35:22.736Z,4.80
2023-01-05T08:37:55.475Z,5.08
2023-01-05T08:40:28.300Z,4.37
2023-01-05T08:43:01.316Z,8.40
2023-01-05T08:45:35.398Z,5.75
2023-01-05T08:48:09.546Z,5.83
2023-01-05T08:50:42.633Z,5.42
2023-01-05T08:53:15.727Z,8.38
2023-01-05T08:55:48.554Z,6.40
2023-01-05T08:58:21.759Z,4.60
2023-01-05T09:02:26.825Z,6.42
2023-01-05T09:04:59.899Z,3.72
2023-01-05T09:07:33.268Z,5.87
2023-01-05T09:10:07.711Z,5.87
2023-01-05T09:12:41.353Z,6.10
2023-01-05T09:15:15.258Z,6.17
2023-01-05T09:17:48.219Z,4.40
2023-01-05T09:20:21.060Z,8.98
2023-01-05T09:22:53.909Z,3.55
2023-01-05T09:25:26.779Z,5.75
2023-01-05T09:27:59.570Z,5.97
2023-01-05T09:30:40.187Z,4.40
2023-01-05T09:33:07.644Z,5.80
2023-01-05T09:35:40.387Z,3.50
2023-01-05T09:38:13.840Z,3.67
2023-01-05T09:40:46.913Z,4.47
2023-01-05T09:43:29.480Z,6.60
2023-01-05T09:46:03.574Z,5.67
2023-01-05T09:48:43.951Z,6.78
2023-01-05T09:51:16.826Z,5.85
2023-01-05T09:53:49.658Z,5.95
2023-01-05T09:59:32.224Z,6.50
2023-01-05T10:02:40.294Z,8.20
2023-01-05T10:05:15.667Z,6.65
2023-01-05T10:08:04.138Z,8.45
2023-01-05T10:10:52.900Z,6.80
2023-01-05T10:13:30.666Z,10.23
2023-01-05T10:16:05.788Z,9.95
2023-01-05T10:18:38.965Z,17.40
2023-01-05T10:21:31.095Z,12.90
2023-01-05T10:24:29.468Z,11.33
2023-01-05T10:27:28.145Z,18.95
2023-01-05T10:29:49.860Z,10.20
2023-01-05T10:32:50.312Z,15.48
2023-01-05T10:36:00.998Z,10.40
2023-01-05T10:38:38.282Z,8.78
2023-01-05T10:41:24.790Z,7.85
2023-01-05T10:44:46.522Z,7.20
2023-01-05T10:47:19.451Z,7.05
2023-01-05T10:49:52.752Z,4.35
2023-01-05T10:52:26.585Z,7.07
2023-01-05T10:55:02.277Z,8.68
2023-01-05T10:57:38.951Z,5.25
2023-01-05T11:00:23.729Z,6.60
2023-01-05T11:05:40.361Z,7.30
2023-01-05T11:08:25.731Z,6.95
2023-01-05T11:11:07.405Z,8.93
2023-01-05T11:13:49.402Z,6.45
2023-01-05T11:16:33.082Z,7.12
2023-01-05T11:19:15.869Z,7.33
2023-01-05T11:21:49.103Z,8.35
2023-01-05T11:24:32.157Z,7.75
2023-01-05T11:27:24.376Z,7.97
2023-01-05T11:30:18.241Z,8.13
2023-01-05T11:32:51.434Z,6.90
2023-01-05T11:35:37.048Z,7.05
2023-01-05T11:38:20.264Z,8.30
2023-01-05T11:40:54.154Z,8.08
2023-01-05T11:43:30.017Z,10.78
2023-01-05T11:46:05.621Z,7.95
2023-01-05T11:48:39.178Z,11.73
2023-01-05T11:51:35.076Z,10.95
2023-01-05T11:56:42.127Z,10.40
2023-01-05T11:59:20.409Z,8.30
2023-01-05T12:02:06.761Z,12.43
2023-01-05T12:05:06.734Z,10.88
2023-01-05T12:07:45.079Z,10.43
2023-01-05T12:10:49.525Z,7.62
2023-01-05T12:14:01.897Z,8.70
2023-01-05T12:16:56.772Z,12.60
2023-01-05T12:19:46.449Z,10.18
2023-01-05T12:22:57.487Z,7.15
2023-01-05T12:26:02.397Z,10.40
2023-01-05T12:29:45.121Z,6.70
2023-01-05T12:35:20.177Z,6.95
2023-01-05T12:38:18.987Z,9.65
2023-01-05T12:41:25.739Z,10.63
2023-01-05T12:44:18.067Z,11.43
2023-01-05T12:47:07.451Z,8.53
2023-01-05T12:49:47.421Z,10.25
2023-01-05T12:52:29.042Z,8.45
2023-01-05T12:55:21.828Z,8.48
2023-01-05T12:58:02.085Z,8.40
2023-01-05T13:00:37.601Z,11.53
2023-01-05T13:03:32.846Z,9.98
2023-01-05T13:06:16.066Z,7.83
2023-01-05T13:09:03.237Z,14.70
2023-01-05T13:12:10.778Z,12.65
2023-01-05T13:14:56.899Z,10.72
2023-01-05T13:17:37.641Z,9.13
2023-01-05T13:20:30.407Z,9.93
2023-01-05T13:23:13.163Z,10.20
2023-01-05T13:25:50.798Z,9.83
2023-01-05T13:28:27.471Z,7.95
2023-01-05T13:31:41.213Z,6.25
2023-01-05T13:34:24.145Z,7.78
2023-01-05T13:37:33.191Z,8.78
2023-01-05T13:40:47.087Z,7.95
2023-01-05T13:43:47.381Z,8.23
2023-01-05T13:46:41.685Z,10.50
2023-01-05T13:49:39.952Z,8.98
2023-01-05T13:52:35.684Z,6.47
2023-01-05T13:55:17.760Z,4.53
2023-01-05T13:57:49.554Z,7.05
2023-01-05T14:00:29.102Z,8.18
2023-01-05T14:03:08.505Z,7.55
2023-01-05T14:05:56.206Z,6.37
2023-01-05T14:08:39.521Z,6.45
2023-01-05T14:11:19.084Z,6.85
2023-01-05T14:14:08.736Z,7.97
2023-01-05T14:16:48.301Z,6.05
2023-01-05T14:19:38.286Z,6.37
2023-01-05T14:22:28.043Z,5.80
2023-01-05T14:25:00.867Z,9.13
2023-01-05T14:27:34.023Z,9.40
2023-01-05T14:30:10.661Z,8.40
2023-01-05T14:32:45.194Z,6.55
2023-01-05T14:38:23.388Z,7.83
2023-01-05T14:40:57.449Z,7.53
2023-01-05T14:43:36.131Z,8.28
2023-01-05T14:46:14.867Z,4.95
2023-01-05T14:49:08.740Z,6.20
2023-01-05T14:51:41.676Z,5.75
2023-01-05T14:54:14.328Z,7.33
2023-01-05T14:56:50.721Z,6.55
2023-01-05T14:59:26.104Z,6.97
2023-01-05T15:02:02.571Z,8.53
2023-01-05T15:04:40.263Z,7.28
2023-01-05T15:10:31.812Z,9.85
2023-01-05T15:13:42.930Z,7.60
2023-01-05T15:16:23.952Z,8.28
2023-01-05T15:19:07.623Z,7.70
2023-01-05T15:22:13.561Z,7.37
2023-01-05T15:25:10.775Z,6.50
2023-01-05T15:27:48.576Z,6.47
2023-01-05T15:30:44.981Z,7.47
2023-01-05T15:33:43.305Z,7.70
2023-01-05T15:36:30.115Z,9.20
2023-01-05T15:39:03.208Z,7.83
2023-01-05T15:41:36.011Z,6.83
2023-01-05T15:44:08.781Z,9.75
2023-01-05T15:46:43.434Z,9.98
2023-01-05T15:49:28.804Z,7.97
2023-01-05T15:52:02.315Z,9.83
2023-01-05T15:54:36.207Z,8.40
2023-01-05T15:57:21.930Z,7.72
2023-01-05T15:59:54.773Z,12.45
2023-01-05T16:02:31.410Z,8.83
2023-01-05T16:05:16.287Z,8.00
2023-01-05T16:08:06.617Z,8.48
2023-01-05T16:10:53.863Z,7.78
2023-01-05T16:13:37.153Z,8.50
2023-01-05T16:16:50.456Z,8.10
2023-01-05T16:19:02.437Z,6.80
2023-01-05T16:21:46.361Z,8.40
2023-01-05T16:24:26.978Z,7.80
2023-01-05T16:27:00.120Z,6.22
2023-01-05T16:29:47.363Z,8.20
2023-01-05T16:32:41.799Z,7.70
2023-01-05T16:35:35.367Z,6.35
2023-01-05T16:38:16.419Z,6.72
2023-01-05T16:40:55.009Z,7.22
2023-01-05T16:43:35.443Z,6.30
2023-01-05T16:46:23.318Z,6.08
2023-01-05T16:49:06.498Z,6.92
2023-01-05T16:51:42.009Z,7.92
2023-01-05T16:54:23.584Z,7.40
2023-01-05T16:57:01.727Z,6.37
2023-01-05T16:59:47.823Z,7.50
2023-01-05T17:02:42.547Z,7.92
2023-01-05T17:05:28.541Z,7.30
2023-01-05T17:08:13.104Z,8.88
2023-01-05T17:10:46.635Z,7.97
2023-01-05T17:13:23.126Z,7.05
2023-01-05T17:15:56.318Z,6.87
2023-01-05T17:18:30.935Z,7.17
2023-01-05T17:21:06.398Z,9.25
2023-01-05T17:23:52.370Z,9.13
2023-01-05T17:26:38.135Z,9.10
2023-01-05T17:29:20.900Z,7.58
2023-01-05T17:31:54.362Z,8.63
2023-01-05T17:34:28.176Z,8.98
2023-01-05T17:37:02.514Z,7.70
2023-01-05T17:39:36.277Z,7.08
2023-01-05T17:42:27.186Z,8.80
2023-01-05T17:44:59.867Z,8.53
2023-01-05T17:47:32.850Z,7.42
2023-01-05T17:50:06.407Z,7.90
2023-01-05T17:52:39.519Z,6.70
2023-01-05T17:55:13.248Z,6.87
2023-01-05T17:57:46.226Z,7.20
2023-01-05T18:00:22.406Z,6.65
2023-01-05T18:02:56.741Z,7.25
2023-01-05T18:05:29.820Z,5.83
2023-01-05T18:08:02.786Z,8.43
2023-01-05T18:10:38.255Z,7.53
2023-01-05T18:13:12.114Z,8.10
2023-01-05T18:15:47.565Z,12.00
2023-01-05T18:18:21.722Z,9.43
2023-01-05T18:20:54.912Z,9.83
2023-01-05T18:23:27.900Z,8.98
2023-01-05T18:26:09.922Z,13.93
2023-01-05T18:28:42.910Z,12.28
2023-01-05T18:31:17.604Z,14.10
2023-01-05T18:33:50.791Z,12.80
2023-01-05T18:36:23.959Z,14.20
2023-01-05T18:38:58.606Z,12.30
2023-01-05T18:41:32.102Z,12.98
2023-01-05T18:44:05.276Z,12.88
2023-01-05T18:46:38.940Z,15.13
2023-01-05T18:49:12.983Z,16.45
2023-01-05T18:51:45.732Z,15.80
2023-01-05T18:54:19.275Z,16.55
2023-01-05T18:56:52.255Z,16.60
2023-01-05T18:59:25.923Z,16.60
2023-01-05T19:01:58.833Z,19.65
2023-01-05T19:04:31.895Z,21.57
2023-01-05T19:07:04.654Z,19.67
2023-01-05T19:09:38.376Z,18.20
2023-01-05T19:12:11.264Z,22.05
2023-01-05T19:14:44.588Z,20.27
2023-01-05T19:17:17.623Z,21.68
2023-01-05T19:19:50.690Z,22.90
2023-01-05T19:22:23.499Z,20.27
2023-01-05T19:24:57.229Z,24.07
2023-01-05T19:27:30.745Z,23.73
2023-01-05T19:30:04.037Z,23.07
2023-01-05T19:32:37.623Z,28.32
2023-01-05T19:35:10.681Z,26.45
2023-01-05T19:37:45.567Z,26.70
2023-01-05T19:40:20.221Z,28.57
2023-01-05T19:42:53.722Z,26.50
2023-01-05T19:45:28.469Z,28.90
2023-01-05T19:48:01.447Z,29.25
2023-01-05T19:50:35.677Z,33.05
2023-01-05T19:53:08.391Z,28.25
2023-01-05T19:55:41.619Z,31.68
2023-01-05T19:58:15.211Z,32.17
2023-01-05T20:00:48.393Z,28.90
2023-01-05T20:03:21.012Z,31.85
2023-01-05T20:05:54.309Z,27.98
2023-01-05T20:08:27.377Z,31.10
2023-01-05T20:11:02.453Z,28.77
2023-01-05T20:13:35.388Z,31.68
2023-01-05T20:16:12.450Z,26.77
2023-01-05T20:18:45.179Z,29.70
2023-01-05T20:21:17.975Z,29.32
2023-01-05T20:23:51.358Z,31.42
2023-01-05T20:26:24.935Z,34.25
2023-01-05T20:29:00.246Z,32.93
2023-01-05T20:31:36.662Z,31.93
2023-01-05T20:34:14.293Z,30.70
2023-01-05T20:36:48.459Z,39.83
2023-01-05T20:39:23.789Z,32.73
2023-01-05T20:41:57.110Z,32.45
2023-01-05T20:44:29.927Z,39.38
2023-01-05T20:47:03.680Z,33.88
2023-01-05T20:49:38.915Z,40.50
2023-01-05T20:52:13.387Z,40.05
2023-01-05T20:54:46.388Z,37.83
2023-01-05T20:57:19.740Z,38.00
2023-01-05T20:59:52.763Z,41.53
2023-01-05T21:02:25.710Z,37.70
2023-01-05T21:04:58.507Z,51.65
2023-01-05T21:07:32.018Z,37.55
2023-01-05T21:10:04.930Z,42.60
2023-01-05T21:12:38.062Z,45.65
2023-01-05T21:15:12.322Z,46.68
2023-01-05T21:20:17.673Z,43.38
2023-01-05T21:22:50.739Z,37.63
2023-01-05T21:25:25.211Z,37.40
2023-01-05T21:27:58.344Z,37.33
2023-01-05T21:30:31.049Z,35.80
2023-01-05T21:33:06.644Z,45.73
2023-01-05T21:35:39.875Z,43.20
2023-01-05T21:38:12.881Z,37.78
2023-01-05T21:40:46.040Z,38.83
2023-01-05T21:43:19.165Z,36.95
2023-01-05T21:45:51.809Z,39.45
2023-01-05T21:48:24.639Z,36.38
2023-01-05T21:51:19.232Z,40.65
2023-01-05T21:54:10.473Z,46.10
2023-01-05T21:56:44.793Z,40.33
2023-01-05T21:59:17.579Z,46.35
2023-01-05T22:01:50.356Z,35.75
2023-01-05T22:04:23.462Z,38.92
2023-01-05T22:06:57.732Z,34.83
2023-01-05T22:09:32.059Z,37.40
2023-01-05T22:12:10.699Z,43.85
2023-01-05T22:14:43.972Z,36.45
2023-01-05T22:17:17.008Z,35.85
2023-01-05T22:19:49.881Z,37.10
2023-01-05T22:22:23.205Z,35.30
2023-01-05T22:24:56.111Z,33.55
2023-01-05T22:27:30.024Z,42.90
2023-01-05T22:30:02.791Z,35.85
2023-01-05T22:32:40.117Z,33.88
2023-01-05T22:35:13.490Z,40.65
2023-01-05T22:37:46.400Z,43.20
2023-01-05T22:40:20.962Z,33.65
2023-01-05T22:42:53.961Z,37.67
2023-01-05T22:45:26.976Z,43.40
2023-01-05T22:47:59.863Z,38.35
2023-01-05T22:50:34.076Z,39.42
2023-01-05T22:53:06.993Z,38.92
2023-01-05T22:55:41.634Z,37.00
2023-01-05T22:58:14.622Z,43.50
2023-01-05T23:00:47.564Z,35.05
2023-01-05T23:03:22.018Z,39.05
2023-01-05T23:08:27.859Z,35.98
2023-01-05T23:11:03.344Z,37.08
2023-01-05T23:13:36.435Z,35.88
2023-01-05T23:16:10.197Z,35.45
2023-01-05T23:18:43.562Z,41.20
2023-01-05T23:21:17.482Z,39.23
2023-01-05T23:23:51.778Z,36.65
2023-01-05T23:26:27.045Z,37.00
2023-01-05T23:28:59.911Z,38.90
2023-01-05T23:31:33.157Z,41.15
2023-01-05T23:34:05.917Z,36.88
2023-01-05T23:36:39.031Z,41.55
2023-01-05T23:39:12.046Z,36.20
2023-01-05T23:41:44.923Z,36.08
2023-01-05T23:44:17.846Z,35.45
2023-01-05T23:46:51.102Z,38.53
2023-01-05T23:49:23.841Z,38.38
2023-01-05T23:51:56.691Z,39.70
2023-01-05T23:54:29.477Z,43.95
2023-01-05T23:57:02.483Z,38.58
2023-01-05T23:59:35.674Z,46.53
